createdAt,value
2023-05-20T00:01:59.666Z,81.57
2023-05-20T00:04:28.061Z,81.42
2023-05-20T00:06:56.064Z,81.59
2023-05-20T00:09:23.975Z,81.48
2023-05-20T00:11:52.258Z,81.26
2023-05-20T00:14:20.231Z,79.83
2023-05-20T00:16:48.233Z,82.06
2023-05-20T00:19:17.042Z,83.02
2023-05-20T00:21:45.009Z,81.39
2023-05-20T00:24:12.998Z,83.41
2023-05-20T00:26:41.486Z,84.28
2023-05-20T00:29:09.480Z,82.85
2023-05-20T00:31:37.668Z,83.52
2023-05-20T00:34:06.798Z,83.59
2023-05-20T00:36:35.833Z,84.34
2023-05-20T00:39:04.039Z,85.08
2023-05-20T00:41:33.035Z,85.24
2023-05-20T00:44:01.070Z,84.73
2023-05-20T00:46:30.108Z,84.54
2023-05-20T00:48:59.053Z,84.51
2023-05-20T00:51:27.276Z,84.33
2023-05-20T00:53:56.531Z,83.21
2023-05-20T00:56:25.655Z,82.31
2023-05-20T00:58:53.860Z,81.86
2023-05-20T01:01:22.026Z,81.31
2023-05-20T01:03:52.129Z,80.28
2023-05-20T01:06:20.236Z,80.78
2023-05-20T01:08:48.531Z,81.19
2023-05-20T01:11:25.362Z,83.11
2023-05-20T01:13:58.543Z,84.11
2023-05-20T01:16:30.093Z,83.04
2023-05-20T01:18:59.645Z,83.51
2023-05-20T01:21:31.645Z,83.83
2023-05-20T01:23:59.682Z,84.20
2023-05-20T01:26:28.512Z,83.83
2023-05-20T01:28:58.275Z,83.50
2023-05-20T01:31:33.534Z,83.11
2023-05-20T01:34:02.790Z,82.40
2023-05-20T01:36:32.820Z,82.27
2023-05-20T01:39:03.520Z,81.97
2023-05-20T01:41:34.868Z,81.74
2023-05-20T01:44:04.195Z,81.15
2023-05-20T01:46:35.292Z,80.72
2023-05-20T01:49:03.813Z,81.01
2023-05-20T01:51:33.966Z,80.50
2023-05-20T01:54:02.048Z,79.92
2023-05-20T01:56:31.372Z,79.73
2023-05-20T01:59:00.209Z,79.58
2023-05-20T02:01:28.485Z,79.15
2023-05-20T02:03:56.910Z,78.99
2023-05-20T02:06:24.981Z,78.94
2023-05-20T02:08:53.065Z,78.48
2023-05-20T02:11:22.401Z,78.20
2023-05-20T02:13:51.922Z,78.05
2023-05-20T02:16:20.117Z,77.87
2023-05-20T02:18:48.744Z,77.55
2023-05-20T02:21:18.480Z,77.50
2023-05-20T02:23:46.909Z,76.62
2023-05-20T02:26:14.920Z,76.79
2023-05-20T02:28:47.696Z,76.74
2023-05-20T02:31:15.774Z,75.98
2023-05-20T02:33:45.364Z,75.43
2023-05-20T02:36:13.619Z,74.33
2023-05-20T02:38:41.849Z,73.44
2023-05-20T02:41:11.717Z,72.57
2023-05-20T02:43:41.042Z,71.54
2023-05-20T02:46:09.203Z,71.47
2023-05-20T02:48:38.285Z,71.30
2023-05-20T02:51:06.648Z,71.26
2023-05-20T02:53:34.841Z,70.88
2023-05-20T02:56:06.401Z,72.06
2023-05-20T02:58:35.964Z,72.64
2023-05-20T03:01:04.557Z,72.57
2023-05-20T03:03:33.963Z,72.74
2023-05-20T03:06:01.966Z,73.11
2023-05-20T03:08:30.426Z,72.86
2023-05-20T03:10:59.217Z,72.90
2023-05-20T03:13:28.578Z,73.21
2023-05-20T03:16:01.759Z,72.87
2023-05-20T03:18:30.054Z,73.34
2023-05-20T03:20:58.724Z,73.47
2023-05-20T03:23:27.602Z,73.48
2023-05-20T03:25:55.950Z,72.95
2023-05-20T03:28:24.447Z,72.35
2023-05-20T03:30:52.497Z,72.16
2023-05-20T03:33:20.963Z,68.26
2023-05-20T03:35:49.283Z,71.50
2023-05-20T03:38:17.479Z,72.26
2023-05-20T03:40:45.711Z,72.61
2023-05-20T03:43:14.078Z,72.38
2023-05-20T03:45:42.288Z,72.05
2023-05-20T03:48:10.347Z,71.53
2023-05-20T03:50:39.235Z,71.63
2023-05-20T03:53:07.561Z,71.69
2023-05-20T03:55:37.010Z,68.70
2023-05-20T03:58:08.490Z,68.06
2023-05-20T04:00:36.661Z,69.69
2023-05-20T04:03:06.211Z,70.16
2023-05-20T04:05:35.510Z,70.22
2023-05-20T04:08:05.366Z,67.90
2023-05-20T04:10:34.334Z,68.18
2023-05-20T04:13:02.377Z,68.17
2023-05-20T04:15:31.180Z,68.41
2023-05-20T04:18:01.691Z,65.11
2023-05-20T04:20:29.796Z,67.92
2023-05-20T04:22:58.492Z,67.27
2023-05-20T04:25:27.748Z,63.94
2023-05-20T04:27:58.014Z,66.16
2023-05-20T04:30:26.538Z,65.98
2023-05-20T04:32:55.247Z,63.29
2023-05-20T04:35:26.378Z,62.19
2023-05-20T04:37:56.479Z,62.96
2023-05-20T04:40:24.496Z,59.43
2023-05-20T04:42:53.710Z,63.31
2023-05-20T04:45:23.637Z,66.04
2023-05-20T04:47:53.643Z,65.12
2023-05-20T04:50:22.352Z,64.16
2023-05-20T04:52:51.033Z,62.97
2023-05-20T04:55:20.190Z,64.80
2023-05-20T04:57:49.537Z,62.63
2023-05-20T05:00:18.185Z,63.56
2023-05-20T05:02:46.370Z,63.79
2023-05-20T05:05:15.044Z,64.42
2023-05-20T05:07:43.132Z,59.97
2023-05-20T05:10:12.907Z,58.93
2023-05-20T05:12:41.228Z,60.64
2023-05-20T05:15:09.556Z,59.38
2023-05-20T05:17:37.407Z,60.41
2023-05-20T05:20:06.693Z,54.35
2023-05-20T05:22:37.311Z,53.99
2023-05-20T05:25:06.949Z,56.24
2023-05-20T05:27:36.201Z,52.99
2023-05-20T05:30:06.630Z,59.79
2023-05-20T05:32:37.139Z,59.76
2023-05-20T05:35:08.035Z,53.01
2023-05-20T05:37:36.934Z,55.00
2023-05-20T05:40:07.607Z,59.10
2023-05-20T05:42:35.882Z,62.13
2023-05-20T05:45:04.617Z,55.30
2023-05-20T05:47:34.503Z,58.13
2023-05-20T05:50:02.478Z,57.15
2023-05-20T05:52:32.806Z,52.63
2023-05-20T05:55:03.585Z,50.42
2023-05-20T05:57:33.288Z,48.80
2023-05-20T06:00:02.241Z,53.76
2023-05-20T06:02:36.598Z,56.31
2023-05-20T06:05:05.537Z,52.36
2023-05-20T06:07:33.589Z,52.62
2023-05-20T06:10:02.273Z,52.54
2023-05-20T06:12:31.387Z,44.59
2023-05-20T06:15:00.118Z,45.00
2023-05-20T06:17:28.186Z,43.58
2023-05-20T06:19:56.722Z,43.56
2023-05-20T06:22:25.092Z,48.25
2023-05-20T06:24:55.304Z,47.77
2023-05-20T06:27:23.625Z,46.42
2023-05-20T06:29:51.551Z,49.09
2023-05-20T06:32:19.714Z,53.20
2023-05-20T06:34:48.291Z,52.25
2023-05-20T06:37:16.417Z,51.33
2023-05-20T06:39:44.412Z,53.37
2023-05-20T06:42:13.106Z,52.34
2023-05-20T06:44:44.929Z,53.75
2023-05-20T06:47:18.696Z,51.17
2023-05-20T06:49:47.766Z,52.99
2023-05-20T06:52:17.083Z,54.65
2023-05-20T06:54:46.351Z,54.18
2023-05-20T06:57:14.745Z,53.75
2023-05-20T06:59:43.110Z,52.89
2023-05-20T07:02:12.561Z,53.33
2023-05-20T07:04:40.777Z,53.35
2023-05-20T07:07:09.626Z,55.96
2023-05-20T07:09:37.904Z,51.29
2023-05-20T07:12:06.900Z,48.80
2023-05-20T07:14:35.634Z,51.09
2023-05-20T07:17:04.796Z,51.45
2023-05-20T07:19:34.201Z,49.04
2023-05-20T07:22:03.365Z,47.04
2023-05-20T07:24:32.510Z,45.69
2023-05-20T07:27:00.773Z,46.08
2023-05-20T07:29:29.416Z,50.36
2023-05-20T07:31:58.185Z,50.86
2023-05-20T07:34:26.431Z,51.14
2023-05-20T07:36:55.476Z,47.79
2023-05-20T07:39:24.219Z,51.79
2023-05-20T07:41:52.440Z,48.45
2023-05-20T07:44:22.636Z,48.92
2023-05-20T07:46:51.137Z,48.56
2023-05-20T07:49:21.628Z,52.81
2023-05-20T07:51:50.176Z,48.56
2023-05-20T07:54:18.226Z,48.47
2023-05-20T07:56:47.107Z,49.58
2023-05-20T07:59:15.575Z,43.63
2023-05-20T08:01:44.070Z,47.00
2023-05-20T08:04:13.085Z,47.67
2023-05-20T08:06:41.693Z,49.19
2023-05-20T08:09:10.948Z,41.75
2023-05-20T08:11:39.596Z,42.34
2023-05-20T08:14:07.599Z,45.10
2023-05-20T08:16:37.967Z,41.63
2023-05-20T08:19:06.676Z,46.60
2023-05-20T08:21:35.748Z,43.95
2023-05-20T08:24:04.909Z,44.58
2023-05-20T08:26:33.692Z,37.76
2023-05-20T08:29:02.015Z,38.42
2023-05-20T08:31:31.212Z,37.87
2023-05-20T08:34:00.954Z,35.98
2023-05-20T08:36:29.503Z,40.00
2023-05-20T08:38:57.929Z,42.70
2023-05-20T08:41:27.162Z,44.99
2023-05-20T08:43:55.721Z,52.16
2023-05-20T08:46:24.215Z,42.12
2023-05-20T08:48:53.203Z,47.06
2023-05-20T08:51:24.100Z,35.12
2023-05-20T08:53:52.638Z,39.16
2023-05-20T08:56:23.408Z,39.32
2023-05-20T08:58:52.464Z,40.20
2023-05-20T09:01:26.154Z,42.66
2023-05-20T09:03:54.426Z,42.21
2023-05-20T09:06:22.838Z,42.37
2023-05-20T09:08:52.283Z,42.16
2023-05-20T09:11:22.643Z,46.28
2023-05-20T09:13:51.937Z,42.64
2023-05-20T09:16:20.322Z,45.16
2023-05-20T09:18:48.727Z,42.69
2023-05-20T09:21:17.320Z,40.48
2023-05-20T09:23:49.618Z,40.01
2023-05-20T09:26:19.009Z,44.17
2023-05-20T09:28:47.457Z,43.16
2023-05-20T09:31:15.862Z,40.52
2023-05-20T09:33:47.517Z,42.12
2023-05-20T09:36:16.828Z,40.97
2023-05-20T09:38:47.932Z,41.78
2023-05-20T09:41:15.946Z,40.96
2023-05-20T09:43:45.175Z,36.72
2023-05-20T09:46:14.581Z,34.10
2023-05-20T09:48:43.605Z,43.83
2023-05-20T09:51:13.702Z,42.19
2023-05-20T09:53:43.448Z,42.00
2023-05-20T09:56:11.845Z,43.09
2023-05-20T09:58:42.902Z,41.03
2023-05-20T10:01:11.424Z,39.33
2023-05-20T10:03:43.248Z,43.93
2023-05-20T10:06:30.583Z,43.68
2023-05-20T10:09:14.924Z,46.03
2023-05-20T10:11:58.892Z,47.07
2023-05-20T10:14:36.611Z,45.01
2023-05-20T10:17:10.968Z,47.79
2023-05-20T10:19:39.586Z,43.33
2023-05-20T10:22:12.423Z,43.43
2023-05-20T10:24:45.120Z,44.68
2023-05-20T10:27:15.879Z,44.32
2023-05-20T10:29:54.513Z,40.62
2023-05-20T10:32:27.945Z,45.54
2023-05-20T10:35:01.417Z,44.78
2023-05-20T10:37:43.858Z,46.06
2023-05-20T10:40:14.670Z,46.44
2023-05-20T10:42:43.843Z,44.98
2023-05-20T10:45:12.903Z,46.13
2023-05-20T10:47:59.669Z,46.91
2023-05-20T10:50:39.138Z,46.95
2023-05-20T10:53:21.641Z,46.49
2023-05-20T10:55:58.170Z,48.81
2023-05-20T10:58:26.239Z,50.25
2023-05-20T11:00:56.641Z,48.38
2023-05-20T11:03:26.400Z,48.90
2023-05-20T11:05:54.798Z,51.54
2023-05-20T11:08:29.084Z,49.06
2023-05-20T11:10:58.655Z,48.24
2023-05-20T11:13:27.464Z,49.44
2023-05-20T11:15:56.122Z,46.74
2023-05-20T11:18:32.472Z,48.72
2023-05-20T11:21:01.789Z,51.04
2023-05-20T11:23:31.086Z,47.85
2023-05-20T11:25:59.471Z,51.39
2023-05-20T11:28:27.724Z,50.23
2023-05-20T11:30:56.465Z,48.84
2023-05-20T11:33:27.951Z,50.02
2023-05-20T11:35:58.151Z,48.57
2023-05-20T11:38:26.342Z,49.46
2023-05-20T11:40:56.501Z,49.17
2023-05-20T11:43:25.727Z,49.81
2023-05-20T11:46:00.337Z,48.91
2023-05-20T11:48:29.136Z,49.29
2023-05-20T11:50:58.886Z,49.32
2023-05-20T11:53:29.657Z,48.83
2023-05-20T11:56:00.880Z,48.29
2023-05-20T11:58:35.818Z,48.43
2023-05-20T12:01:17.990Z,45.51
2023-05-20T12:03:51.274Z,46.19
2023-05-20T12:06:20.302Z,43.91
2023-05-20T12:08:48.393Z,43.72
2023-05-20T12:11:16.796Z,44.51
2023-05-20T12:13:45.063Z,44.31
2023-05-20T12:16:13.230Z,43.54
2023-05-20T12:18:41.824Z,43.34
2023-05-20T12:21:15.839Z,42.12
2023-05-20T12:26:30.505Z,41.46
2023-05-20T12:28:58.883Z,40.68
2023-05-20T12:31:27.241Z,44.76
2023-05-20T12:33:55.392Z,39.78
2023-05-20T12:36:23.751Z,40.59
2023-05-20T12:38:51.697Z,40.66
2023-05-20T12:41:19.676Z,40.84
2023-05-20T12:43:47.911Z,41.55
2023-05-20T12:46:16.184Z,41.07
2023-05-20T12:48:44.177Z,42.38
2023-05-20T12:51:12.485Z,40.74
2023-05-20T12:53:40.355Z,43.84
2023-05-20T12:56:08.493Z,40.07
2023-05-20T12:58:36.862Z,42.26
2023-05-20T13:01:17.240Z,40.73
2023-05-20T13:03:45.953Z,38.62
2023-05-20T13:06:14.105Z,38.83
2023-05-20T13:08:42.264Z,40.46
2023-05-20T13:11:10.623Z,39.60
2023-05-20T13:13:38.686Z,40.73
2023-05-20T13:16:09.576Z,40.25
2023-05-20T13:18:38.348Z,40.14
2023-05-20T13:21:11.977Z,38.04
2023-05-20T13:26:31.722Z,38.39
2023-05-20T13:29:00.276Z,38.52
2023-05-20T13:31:28.488Z,38.68
2023-05-20T13:33:59.572Z,38.58
2023-05-20T13:36:27.985Z,38.43
2023-05-20T13:38:56.055Z,38.81
2023-05-20T13:41:26.878Z,37.23
2023-05-20T13:43:55.475Z,37.92
2023-05-20T13:46:23.644Z,39.87
2023-05-20T13:48:51.769Z,42.67
2023-05-20T13:51:20.803Z,44.01
2023-05-20T13:53:49.028Z,43.75
2023-05-20T13:56:17.343Z,44.40
2023-05-20T13:58:46.011Z,45.28
2023-05-20T14:01:15.907Z,43.81
2023-05-20T14:03:44.607Z,43.63
2023-05-20T14:06:15.382Z,43.32
2023-05-20T14:08:43.492Z,43.26
2023-05-20T14:11:12.265Z,43.11
2023-05-20T14:13:40.587Z,42.83
2023-05-20T14:16:08.777Z,42.61
2023-05-20T14:18:37.338Z,42.53
2023-05-20T14:21:05.939Z,42.79
2023-05-20T14:23:34.064Z,43.42
2023-05-20T14:26:02.643Z,43.02
2023-05-20T14:28:30.755Z,43.94
2023-05-20T14:30:58.722Z,45.30
2023-05-20T14:33:26.965Z,44.02
2023-05-20T14:35:55.017Z,44.10
2023-05-20T14:38:23.050Z,44.10
2023-05-20T14:40:51.315Z,43.57
2023-05-20T14:43:19.453Z,42.19
2023-05-20T14:45:47.495Z,43.46
2023-05-20T14:48:16.418Z,44.67
2023-05-20T14:50:44.531Z,45.26
2023-05-20T14:53:12.601Z,45.38
2023-05-20T14:55:41.123Z,46.12
2023-05-20T14:58:11.688Z,45.89
2023-05-20T15:00:40.122Z,46.37
2023-05-20T15:03:08.991Z,46.44
2023-05-20T15:05:37.393Z,46.95
2023-05-20T15:08:05.670Z,45.74
2023-05-20T15:10:34.590Z,46.35
2023-05-20T15:13:03.616Z,46.56
2023-05-20T15:15:32.416Z,47.09
2023-05-20T15:18:01.728Z,46.07
2023-05-20T15:20:29.815Z,46.72
2023-05-20T15:23:00.309Z,47.51
2023-05-20T15:25:29.426Z,46.81
2023-05-20T15:27:57.435Z,47.02
2023-05-20T15:30:25.524Z,46.57
2023-05-20T15:32:54.001Z,46.09
2023-05-20T15:35:22.357Z,46.57
2023-05-20T15:37:50.451Z,44.96
2023-05-20T15:40:18.873Z,46.45
2023-05-20T15:42:48.564Z,47.63
2023-05-20T15:45:16.836Z,48.26
2023-05-20T15:47:45.388Z,48.76
2023-05-20T15:50:13.555Z,47.70
2023-05-20T15:52:41.727Z,48.65
2023-05-20T15:55:10.664Z,48.86
2023-05-20T15:57:38.889Z,48.60
2023-05-20T16:00:10.665Z,48.52
2023-05-20T16:02:40.609Z,45.81
2023-05-20T16:05:09.017Z,46.23
2023-05-20T16:07:37.333Z,47.69
2023-05-20T16:10:06.638Z,48.35
2023-05-20T16:12:34.867Z,48.89
2023-05-20T16:15:03.886Z,49.11
2023-05-20T16:17:32.624Z,48.99
2023-05-20T16:20:01.324Z,48.64
2023-05-20T16:22:32.822Z,49.62
2023-05-20T16:25:04.581Z,49.85
2023-05-20T16:27:34.387Z,50.77
2023-05-20T16:30:03.412Z,51.00
2023-05-20T16:32:32.890Z,51.12
2023-05-20T16:35:02.111Z,51.49
2023-05-20T16:37:32.815Z,51.25
2023-05-20T16:40:01.056Z,51.39
2023-05-20T16:42:32.654Z,51.76
2023-05-20T16:45:01.559Z,52.17
2023-05-20T16:47:33.426Z,51.99
2023-05-20T16:50:01.879Z,52.54
2023-05-20T16:52:33.400Z,52.65
2023-05-20T16:55:05.168Z,52.72
2023-05-20T16:57:33.883Z,52.13
2023-05-20T17:00:02.759Z,52.49
2023-05-20T17:02:33.236Z,53.14
2023-05-20T17:05:01.789Z,53.48
2023-05-20T17:07:33.876Z,53.38
2023-05-20T17:10:02.379Z,53.48
2023-05-20T17:12:31.944Z,54.14
2023-05-20T17:14:59.942Z,53.54
2023-05-20T17:17:28.121Z,54.05
2023-05-20T17:19:56.690Z,54.73
2023-05-20T17:22:24.874Z,53.03
2023-05-20T17:24:53.034Z,55.34
2023-05-20T17:27:21.570Z,55.80
2023-05-20T17:29:49.681Z,55.95
2023-05-20T17:32:17.996Z,56.66
2023-05-20T17:34:46.793Z,54.89
2023-05-20T17:40:00.894Z,56.34
2023-05-20T17:42:31.998Z,57.29
2023-05-20T17:45:00.601Z,57.77
2023-05-20T17:47:28.935Z,58.64
2023-05-20T17:49:57.125Z,56.34
2023-05-20T17:52:25.895Z,59.04
2023-05-20T17:54:54.063Z,59.70
2023-05-20T17:57:22.346Z,61.21
2023-05-20T17:59:51.337Z,61.36
2023-05-20T18:02:19.631Z,59.84
2023-05-20T18:04:51.207Z,62.21
2023-05-20T18:07:19.420Z,63.97
2023-05-20T18:09:47.947Z,67.36
2023-05-20T18:12:16.537Z,65.47
2023-05-20T18:14:44.861Z,70.36
2023-05-20T18:17:13.580Z,70.96
2023-05-20T18:19:41.771Z,70.63
2023-05-20T18:22:09.904Z,72.97
2023-05-20T18:24:38.922Z,72.69
2023-05-20T18:27:07.094Z,71.53
2023-05-20T18:29:35.282Z,75.95
2023-05-20T18:32:04.798Z,78.71
2023-05-20T18:34:35.058Z,79.97
2023-05-20T18:37:04.498Z,82.27
2023-05-20T18:39:32.711Z,84.40
2023-05-20T18:42:01.051Z,85.89
2023-05-20T18:44:29.542Z,86.78
2023-05-20T18:46:57.561Z,87.26
2023-05-20T18:49:25.502Z,88.17
2023-05-20T18:51:54.269Z,89.20
2023-05-20T18:54:22.524Z,90.44
2023-05-20T18:56:51.096Z,90.69
2023-05-20T18:59:19.949Z,90.98
2023-05-20T19:01:48.958Z,90.95
2023-05-20T19:04:17.189Z,91.63
2023-05-20T19:06:46.328Z,92.36
2023-05-20T19:09:14.731Z,89.90
2023-05-20T19:11:43.137Z,90.57
2023-05-20T19:14:12.777Z,90.96
2023-05-20T19:16:41.190Z,90.42
2023-05-20T19:19:09.606Z,91.93
2023-05-20T19:21:43.192Z,92.11
2023-05-20T19:24:12.577Z,92.92
2023-05-20T19:26:41.814Z,91.46
2023-05-20T19:29:10.185Z,91.77
2023-05-20T19:31:41.760Z,92.75
2023-05-20T19:34:10.622Z,92.19
2023-05-20T19:36:40.208Z,92.57
2023-05-20T19:39:10.329Z,86.72
2023-05-20T19:41:38.935Z,85.69
2023-05-20T19:44:08.859Z,86.40
2023-05-20T19:46:37.121Z,88.10
2023-05-20T19:49:06.617Z,87.36
2023-05-20T19:51:34.800Z,86.57
2023-05-20T19:54:02.994Z,85.11
2023-05-20T19:56:32.040Z,87.37
2023-05-20T19:59:01.994Z,88.98
2023-05-20T20:01:31.018Z,86.51
2023-05-20T20:03:59.502Z,81.02
2023-05-20T20:06:27.540Z,81.10
2023-05-20T20:08:55.595Z,89.18
2023-05-20T20:11:24.219Z,90.55
2023-05-20T20:13:52.418Z,89.75
2023-05-20T20:16:20.534Z,88.31
2023-05-20T20:18:49.138Z,89.04
2023-05-20T20:21:17.080Z,89.49
2023-05-20T20:23:45.080Z,88.47
2023-05-20T20:26:14.189Z,87.98
2023-05-20T20:28:42.294Z,88.83
2023-05-20T20:33:57.058Z,89.31
2023-05-20T20:36:25.161Z,90.02
2023-05-20T20:38:53.251Z,90.80
2023-05-20T20:41:21.834Z,90.76
2023-05-20T20:46:37.935Z,89.54
2023-05-20T20:49:05.972Z,88.68
2023-05-20T20:51:34.368Z,91.89
2023-05-20T20:54:02.531Z,91.65
2023-05-20T20:56:30.645Z,89.42
2023-05-20T20:58:59.056Z,92.64
2023-05-20T21:01:27.260Z,91.63
2023-05-20T21:03:55.551Z,88.37
2023-05-20T21:06:24.032Z,87.78
2023-05-20T21:08:53.461Z,88.96
2023-05-20T21:11:22.851Z,92.05
2023-05-20T21:13:51.298Z,91.17
2023-05-20T21:16:19.874Z,86.75
2023-05-20T21:18:47.964Z,84.15
2023-05-20T21:21:21.022Z,88.76
2023-05-20T21:23:51.219Z,85.53
2023-05-20T21:26:21.740Z,83.01
2023-05-20T21:28:49.839Z,88.50
2023-05-20T21:31:18.163Z,91.69
2023-05-20T21:33:46.770Z,92.67
2023-05-20T21:36:14.879Z,88.80
2023-05-20T21:38:42.893Z,90.14
2023-05-20T21:41:11.680Z,88.63
2023-05-20T21:43:39.795Z,87.87
2023-05-20T21:46:08.268Z,85.88
2023-05-20T21:48:36.713Z,87.25
2023-05-20T21:51:04.736Z,86.46
2023-05-20T21:53:32.787Z,85.95
2023-05-20T21:56:01.355Z,87.30
2023-05-20T21:58:29.445Z,91.17
2023-05-20T22:00:57.886Z,89.00
2023-05-20T22:03:26.402Z,88.83
2023-05-20T22:05:54.368Z,88.73
2023-05-20T22:08:22.492Z,88.33
2023-05-20T22:10:51.033Z,87.26
2023-05-20T22:13:20.937Z,87.33
2023-05-20T22:15:49.132Z,87.84
2023-05-20T22:18:17.555Z,88.80
2023-05-20T22:20:46.408Z,90.65
2023-05-20T22:23:14.475Z,90.01
2023-05-20T22:25:43.305Z,90.96
2023-05-20T22:28:11.316Z,92.71
2023-05-20T22:30:39.397Z,90.19
2023-05-20T22:33:07.967Z,86.69
2023-05-20T22:35:36.417Z,88.84
2023-05-20T22:38:04.986Z,90.41
2023-05-20T22:40:34.125Z,89.65
2023-05-20T22:43:02.102Z,88.99
2023-05-20T22:45:30.190Z,88.92
2023-05-20T22:47:58.832Z,89.84
2023-05-20T22:50:28.128Z,92.15
2023-05-20T22:52:56.343Z,89.97
2023-05-20T22:55:24.741Z,84.26
2023-05-20T22:57:52.864Z,90.81
2023-05-20T23:00:21.161Z,91.80
2023-05-20T23:02:50.256Z,92.93
2023-05-20T23:05:18.419Z,92.07
2023-05-20T23:07:46.463Z,92.48
2023-05-20T23:10:14.961Z,90.61
2023-05-20T23:12:43.014Z,93.95
2023-05-20T23:15:11.349Z,95.01
2023-05-20T23:17:40.157Z,94.01
2023-05-20T23:20:11.968Z,96.46
2023-05-20T23:22:41.517Z,93.36
2023-05-20T23:25:10.075Z,94.38
2023-05-20T23:27:38.240Z,93.60
2023-05-20T23:30:07.377Z,90.53
2023-05-20T23:32:35.361Z,91.75
2023-05-20T23:35:05.001Z,94.24
2023-05-20T23:37:34.933Z,91.87
2023-05-20T23:40:04.733Z,89.62
2023-05-20T23:42:32.732Z,91.31
2023-05-20T23:45:01.359Z,94.27
2023-05-20T23:47:36.744Z,91.36
2023-05-20T23:50:05.551Z,91.68
2023-05-20T23:52:34.586Z,90.43
2023-05-20T23:55:02.605Z,89.25
2023-05-20T23:57:32.680Z,89.05
